Terminal Aerodrome Forecast
Issued by NWS Grand Forks, ND

Home | Current Version | Previous Version | Text Only | Print | Product List | Glossary Off
Versions: 1 2 3 4 5 6 7 8 9 10 11 12 13 14 15 16 17 18

000
FTUS43 KFGF 210500
TAFFAR
TAF
KFAR 210520Z 2106/2206 12008KT P6SM VCTS BKN080CB
     FM210700 13007KT P6SM -TSRA BKN040CB
     FM211700 VRB06KT P6SM VCSH BKN050
     FM220000 VRB05KT P6SM BKN120=

USA.gov is the U.S. government's official web portal to all federal, state and local government web resources and services.